Etusivu
METAR-TAF:

METAR-TAF

Lentoasemat :

Rusk_County_Airport

Ladysmith, Wisconsin, Yhdysvallat

Leveyspiiri: 45-29-48N, Pituuspiiri: 091-00-01W, korkeus merenpinnasta: 377 m

Tämänhetkinen sää

Tämä raportti tehtiin 10 minuuttia sitten, kello 11.15 UTC
Tuuli 3 kn pohjoisesta
Lämpötila 5°C
Kosteus 87%
Ilmanpaine 1017 hPa
Näkyvyys: 16.1 km
Hajonneita pilviä 2700 ft:n korkeudessa
Hajonneita pilviä 12000 ft:n korkeudessa

METAR: KRCX 171115Z AUTO 35003KT 10SM BKN027 BKN120 05/03 A3003 RMK AO2 T00510033

Aika: 06:25 (11:25 UTC)


TAF: puuttuu

Säähavainnot ja -ennusteet yli 4000 lentoasemalta (METAR- ja TAF-raportit).

Käytössä olevat sääasemat on merkitty karttaan keltaisilla ja punaisilla pisteillä.

Aseta hiiri pisteen päälle nähdäksesi sääaseman nimen.

Klikkaa sitten nähdäksesi säähavainnot ja -ennusteet.

Kartan vaihtaminen: klikkaa mustalla rastilla varustettuja vihreitä pisteitä, niin voit zoomata sisään; viivalla varustettua vihreää pistettä, niin voit zoomata ulos tai vihreitä nuolia, niin pääset viereisille kartoille.


METAR-TAF: